sensor_id;sensor_type;location;lat;lon;timestamp;P1;durP1;ratioP1;P2;durP2;ratioP2
10537;SDS011;5317;49.048;8.468;2024-02-21T00:02:25;8.80;;;4.70;;
10537;SDS011;5317;49.048;8.468;2024-02-21T00:04:52;10.43;;;4.30;;
10537;SDS011;5317;49.048;8.468;2024-02-21T00:07:19;10.63;;;4.60;;
10537;SDS011;5317;49.048;8.468;2024-02-21T00:09:46;10.67;;;4.70;;
10537;SDS011;5317;49.048;8.468;2024-02-21T00:12:13;11.07;;;4.83;;
10537;SDS011;5317;49.048;8.468;2024-02-21T00:14:40;10.47;;;4.83;;
10537;SDS011;5317;49.048;8.468;2024-02-21T00:17:08;7.80;;;4.53;;
10537;SDS011;5317;49.048;8.468;2024-02-21T00:19:35;9.57;;;4.13;;
10537;SDS011;5317;49.048;8.468;2024-02-21T00:22:02;9.67;;;4.50;;
10537;SDS011;5317;49.048;8.468;2024-02-21T00:24:28;10.40;;;4.50;;
10537;SDS011;5317;49.048;8.468;2024-02-21T00:26:55;11.10;;;4.27;;
10537;SDS011;5317;49.048;8.468;2024-02-21T00:29:22;7.43;;;3.80;;
10537;SDS011;5317;49.048;8.468;2024-02-21T00:31:49;11.57;;;4.57;;
10537;SDS011;5317;49.048;8.468;2024-02-21T00:34:18;8.93;;;4.30;;
10537;SDS011;5317;49.048;8.468;2024-02-21T00:36:45;9.07;;;3.57;;
10537;SDS011;5317;49.048;8.468;2024-02-21T00:39:11;5.03;;;3.47;;
10537;SDS011;5317;49.048;8.468;2024-02-21T00:41:38;10.70;;;4.00;;
10537;SDS011;5317;49.048;8.468;2024-02-21T00:44:05;8.03;;;3.50;;
10537;SDS011;5317;49.048;8.468;2024-02-21T00:46:32;12.37;;;3.87;;
10537;SDS011;5317;49.048;8.468;2024-02-21T00:48:59;7.70;;;3.97;;
10537;SDS011;5317;49.048;8.468;2024-02-21T00:51:27;7.43;;;3.70;;
10537;SDS011;5317;49.048;8.468;2024-02-21T00:53:54;9.50;;;4.10;;
10537;SDS011;5317;49.048;8.468;2024-02-21T00:56:20;8.00;;;3.73;;
10537;SDS011;5317;49.048;8.468;2024-02-21T00:58:47;8.60;;;3.80;;
10537;SDS011;5317;49.048;8.468;2024-02-21T01:01:20;12.10;;;3.90;;
10537;SDS011;5317;49.048;8.468;2024-02-21T01:03:48;7.77;;;3.70;;
10537;SDS011;5317;49.048;8.468;2024-02-21T01:06:16;6.53;;;3.70;;
10537;SDS011;5317;49.048;8.468;2024-02-21T01:08:44;6.13;;;3.90;;
10537;SDS011;5317;49.048;8.468;2024-02-21T01:11:11;6.80;;;3.70;;
10537;SDS011;5317;49.048;8.468;2024-02-21T01:13:38;7.83;;;4.20;;
10537;SDS011;5317;49.048;8.468;2024-02-21T01:16:05;8.53;;;3.93;;
10537;SDS011;5317;49.048;8.468;2024-02-21T01:18:33;14.07;;;4.33;;
10537;SDS011;5317;49.048;8.468;2024-02-21T01:21:00;11.43;;;4.00;;
10537;SDS011;5317;49.048;8.468;2024-02-21T01:23:26;11.53;;;4.10;;
10537;SDS011;5317;49.048;8.468;2024-02-21T01:25:55;7.93;;;4.17;;
10537;SDS011;5317;49.048;8.468;2024-02-21T01:28:21;7.57;;;3.90;;
10537;SDS011;5317;49.048;8.468;2024-02-21T01:30:48;7.57;;;3.67;;
10537;SDS011;5317;49.048;8.468;2024-02-21T01:33:15;7.57;;;3.53;;
10537;SDS011;5317;49.048;8.468;2024-02-21T01:35:42;6.10;;;3.90;;
10537;SDS011;5317;49.048;8.468;2024-02-21T01:38:09;7.93;;;3.87;;
10537;SDS011;5317;49.048;8.468;2024-02-21T01:40:36;8.90;;;3.90;;
10537;SDS011;5317;49.048;8.468;2024-02-21T01:43:14;9.27;;;3.63;;
10537;SDS011;5317;49.048;8.468;2024-02-21T01:45:42;6.47;;;3.20;;
10537;SDS011;5317;49.048;8.468;2024-02-21T01:48:08;7.97;;;3.83;;
10537;SDS011;5317;49.048;8.468;2024-02-21T01:50:36;9.77;;;3.60;;
10537;SDS011;5317;49.048;8.468;2024-02-21T01:53:03;6.77;;;3.57;;
10537;SDS011;5317;49.048;8.468;2024-02-21T01:55:30;10.60;;;3.93;;
10537;SDS011;5317;49.048;8.468;2024-02-21T01:57:59;6.43;;;3.50;;
10537;SDS011;5317;49.048;8.468;2024-02-21T02:00:27;9.47;;;3.60;;
10537;SDS011;5317;49.048;8.468;2024-02-21T02:02:54;5.83;;;3.80;;
10537;SDS011;5317;49.048;8.468;2024-02-21T02:05:22;10.80;;;3.90;;
10537;SDS011;5317;49.048;8.468;2024-02-21T02:07:49;7.40;;;3.33;;
10537;SDS011;5317;49.048;8.468;2024-02-21T02:10:16;7.77;;;3.20;;
10537;SDS011;5317;49.048;8.468;2024-02-21T02:12:42;10.70;;;3.67;;
10537;SDS011;5317;49.048;8.468;2024-02-21T02:15:09;7.17;;;3.43;;
10537;SDS011;5317;49.048;8.468;2024-02-21T02:17:37;6.57;;;3.20;;
10537;SDS011;5317;49.048;8.468;2024-02-21T02:20:05;5.93;;;3.30;;
10537;SDS011;5317;49.048;8.468;2024-02-21T02:22:33;10.50;;;3.30;;
10537;SDS011;5317;49.048;8.468;2024-02-21T02:25:06;10.07;;;3.30;;
10537;SDS011;5317;49.048;8.468;2024-02-21T02:27:33;6.27;;;2.83;;
10537;SDS011;5317;49.048;8.468;2024-02-21T02:30:09;10.93;;;3.60;;
10537;SDS011;5317;49.048;8.468;2024-02-21T02:32:36;10.50;;;3.70;;
10537;SDS011;5317;49.048;8.468;2024-02-21T02:35:04;13.70;;;3.63;;
10537;SDS011;5317;49.048;8.468;2024-02-21T02:37:31;7.03;;;2.77;;
10537;SDS011;5317;49.048;8.468;2024-02-21T02:39:58;6.77;;;3.00;;
10537;SDS011;5317;49.048;8.468;2024-02-21T02:42:26;7.77;;;3.40;;
10537;SDS011;5317;49.048;8.468;2024-02-21T02:44:53;6.80;;;3.27;;
10537;SDS011;5317;49.048;8.468;2024-02-21T02:47:20;5.87;;;3.60;;
10537;SDS011;5317;49.048;8.468;2024-02-21T02:49:46;9.40;;;3.73;;
10537;SDS011;5317;49.048;8.468;2024-02-21T02:52:15;8.73;;;3.53;;
10537;SDS011;5317;49.048;8.468;2024-02-21T02:54:42;7.63;;;3.30;;
10537;SDS011;5317;49.048;8.468;2024-02-21T02:57:09;7.97;;;3.53;;
10537;SDS011;5317;49.048;8.468;2024-02-21T02:59:38;13.20;;;3.93;;
10537;SDS011;5317;49.048;8.468;2024-02-21T03:02:04;6.90;;;3.30;;
10537;SDS011;5317;49.048;8.468;2024-02-21T03:04:32;8.50;;;3.57;;
10537;SDS011;5317;49.048;8.468;2024-02-21T03:06:59;6.03;;;3.20;;
10537;SDS011;5317;49.048;8.468;2024-02-21T03:09:26;8.33;;;4.07;;
10537;SDS011;5317;49.048;8.468;2024-02-21T03:11:53;7.37;;;3.20;;
10537;SDS011;5317;49.048;8.468;2024-02-21T03:14:22;10.53;;;3.70;;
10537;SDS011;5317;49.048;8.468;2024-02-21T03:16:52;9.13;;;3.53;;
10537;SDS011;5317;49.048;8.468;2024-02-21T03:19:19;5.40;;;3.30;;
10537;SDS011;5317;49.048;8.468;2024-02-21T03:21:46;4.67;;;2.70;;
10537;SDS011;5317;49.048;8.468;2024-02-21T03:24:12;8.37;;;3.10;;
10537;SDS011;5317;49.048;8.468;2024-02-21T03:26:39;7.17;;;2.93;;
10537;SDS011;5317;49.048;8.468;2024-02-21T03:29:06;6.63;;;3.30;;
10537;SDS011;5317;49.048;8.468;2024-02-21T03:31:33;6.10;;;3.67;;
10537;SDS011;5317;49.048;8.468;2024-02-21T03:34:02;9.47;;;3.77;;
10537;SDS011;5317;49.048;8.468;2024-02-21T03:36:29;9.63;;;3.70;;
10537;SDS011;5317;49.048;8.468;2024-02-21T03:38:56;7.47;;;3.60;;
10537;SDS011;5317;49.048;8.468;2024-02-21T03:41:22;7.10;;;3.90;;
10537;SDS011;5317;49.048;8.468;2024-02-21T03:43:49;8.90;;;3.47;;
10537;SDS011;5317;49.048;8.468;2024-02-21T03:46:16;7.13;;;3.40;;
10537;SDS011;5317;49.048;8.468;2024-02-21T03:48:43;7.83;;;3.40;;
10537;SDS011;5317;49.048;8.468;2024-02-21T03:51:12;7.87;;;3.17;;
10537;SDS011;5317;49.048;8.468;2024-02-21T03:53:40;7.30;;;3.20;;
10537;SDS011;5317;49.048;8.468;2024-02-21T03:56:07;6.37;;;2.90;;
10537;SDS011;5317;49.048;8.468;2024-02-21T03:58:34;8.00;;;3.23;;
10537;SDS011;5317;49.048;8.468;2024-02-21T04:01:01;7.17;;;3.00;;
10537;SDS011;5317;49.048;8.468;2024-02-21T04:03:28;6.10;;;3.50;;
10537;SDS011;5317;49.048;8.468;2024-02-21T04:05:55;7.03;;;3.47;;
10537;SDS011;5317;49.048;8.468;2024-02-21T04:08:24;6.47;;;3.40;;
10537;SDS011;5317;49.048;8.468;2024-02-21T04:10:51;6.37;;;3.53;;
10537;SDS011;5317;49.048;8.468;2024-02-21T04:13:18;7.37;;;3.27;;
10537;SDS011;5317;49.048;8.468;2024-02-21T04:15:45;9.00;;;3.27;;
10537;SDS011;5317;49.048;8.468;2024-02-21T04:18:12;7.40;;;3.30;;
10537;SDS011;5317;49.048;8.468;2024-02-21T04:20:39;9.33;;;3.80;;
10537;SDS011;5317;49.048;8.468;2024-02-21T04:23:06;7.47;;;3.70;;
10537;SDS011;5317;49.048;8.468;2024-02-21T04:25:35;9.20;;;3.73;;
10537;SDS011;5317;49.048;8.468;2024-02-21T04:28:02;7.40;;;3.47;;
10537;SDS011;5317;49.048;8.468;2024-02-21T04:30:29;7.97;;;3.70;;
10537;SDS011;5317;49.048;8.468;2024-02-21T04:32:56;7.07;;;3.83;;
10537;SDS011;5317;49.048;8.468;2024-02-21T04:35:23;8.17;;;3.40;;
10537;SDS011;5317;49.048;8.468;2024-02-21T04:37:50;7.70;;;3.37;;
10537;SDS011;5317;49.048;8.468;2024-02-21T04:40:16;7.23;;;3.57;;
10537;SDS011;5317;49.048;8.468;2024-02-21T04:42:45;7.17;;;3.10;;
10537;SDS011;5317;49.048;8.468;2024-02-21T04:45:14;8.60;;;3.60;;
10537;SDS011;5317;49.048;8.468;2024-02-21T04:47:42;7.50;;;3.77;;
10537;SDS011;5317;49.048;8.468;2024-02-21T04:50:09;7.53;;;3.37;;
10537;SDS011;5317;49.048;8.468;2024-02-21T04:52:36;9.30;;;3.43;;
10537;SDS011;5317;49.048;8.468;2024-02-21T04:55:03;8.40;;;3.60;;
10537;SDS011;5317;49.048;8.468;2024-02-21T04:57:31;9.23;;;3.63;;
10537;SDS011;5317;49.048;8.468;2024-02-21T04:59:59;5.53;;;3.37;;
10537;SDS011;5317;49.048;8.468;2024-02-21T05:02:26;6.03;;;3.30;;
10537;SDS011;5317;49.048;8.468;2024-02-21T05:04:53;7.00;;;3.30;;
10537;SDS011;5317;49.048;8.468;2024-02-21T05:07:20;6.47;;;3.40;;
10537;SDS011;5317;49.048;8.468;2024-02-21T05:09:46;8.83;;;3.40;;
10537;SDS011;5317;49.048;8.468;2024-02-21T05:12:13;8.90;;;3.30;;
10537;SDS011;5317;49.048;8.468;2024-02-21T05:14:42;7.33;;;3.30;;
10537;SDS011;5317;49.048;8.468;2024-02-21T05:17:10;6.03;;;3.40;;
10537;SDS011;5317;49.048;8.468;2024-02-21T05:19:37;7.77;;;3.53;;
10537;SDS011;5317;49.048;8.468;2024-02-21T05:22:04;7.43;;;3.43;;
10537;SDS011;5317;49.048;8.468;2024-02-21T05:24:30;7.43;;;3.57;;
10537;SDS011;5317;49.048;8.468;2024-02-21T05:26:57;6.53;;;3.30;;
10537;SDS011;5317;49.048;8.468;2024-02-21T05:29:24;5.10;;;3.50;;
10537;SDS011;5317;49.048;8.468;2024-02-21T05:31:55;6.87;;;3.23;;
10537;SDS011;5317;49.048;8.468;2024-02-21T05:34:23;6.57;;;3.50;;
10537;SDS011;5317;49.048;8.468;2024-02-21T05:36:51;7.03;;;3.77;;
10537;SDS011;5317;49.048;8.468;2024-02-21T05:39:18;5.07;;;3.20;;
10537;SDS011;5317;49.048;8.468;2024-02-21T05:41:47;5.63;;;3.40;;
10537;SDS011;5317;49.048;8.468;2024-02-21T05:44:15;6.07;;;3.47;;
10537;SDS011;5317;49.048;8.468;2024-02-21T05:46:42;10.33;;;4.23;;
10537;SDS011;5317;49.048;8.468;2024-02-21T05:49:08;11.70;;;3.63;;
10537;SDS011;5317;49.048;8.468;2024-02-21T05:51:37;7.40;;;3.37;;
10537;SDS011;5317;49.048;8.468;2024-02-21T05:54:03;8.73;;;4.10;;
10537;SDS011;5317;49.048;8.468;2024-02-21T05:56:31;8.17;;;3.70;;
10537;SDS011;5317;49.048;8.468;2024-02-21T05:59:01;7.30;;;3.70;;
10537;SDS011;5317;49.048;8.468;2024-02-21T06:01:28;8.10;;;3.50;;
10537;SDS011;5317;49.048;8.468;2024-02-21T06:03:54;6.60;;;3.83;;
10537;SDS011;5317;49.048;8.468;2024-02-21T06:06:21;6.53;;;3.40;;
10537;SDS011;5317;49.048;8.468;2024-02-21T06:08:49;10.27;;;4.13;;
10537;SDS011;5317;49.048;8.468;2024-02-21T06:11:16;8.80;;;4.00;;
10537;SDS011;5317;49.048;8.468;2024-02-21T06:13:43;9.90;;;4.03;;
10537;SDS011;5317;49.048;8.468;2024-02-21T06:16:10;6.87;;;3.50;;
10537;SDS011;5317;49.048;8.468;2024-02-21T06:18:37;5.90;;;3.50;;
10537;SDS011;5317;49.048;8.468;2024-02-21T06:21:04;7.63;;;3.53;;
10537;SDS011;5317;49.048;8.468;2024-02-21T06:23:31;6.70;;;3.97;;
10537;SDS011;5317;49.048;8.468;2024-02-21T06:25:59;7.20;;;3.60;;
10537;SDS011;5317;49.048;8.468;2024-02-21T06:28:26;9.47;;;3.87;;
10537;SDS011;5317;49.048;8.468;2024-02-21T06:30:53;5.20;;;3.47;;
10537;SDS011;5317;49.048;8.468;2024-02-21T06:33:20;8.07;;;3.63;;
10537;SDS011;5317;49.048;8.468;2024-02-21T06:35:49;8.13;;;3.63;;
10537;SDS011;5317;49.048;8.468;2024-02-21T06:38:18;8.50;;;3.50;;
10537;SDS011;5317;49.048;8.468;2024-02-21T06:40:45;5.83;;;3.57;;
10537;SDS011;5317;49.048;8.468;2024-02-21T06:43:17;6.97;;;3.57;;
10537;SDS011;5317;49.048;8.468;2024-02-21T06:45:45;9.50;;;3.70;;
10537;SDS011;5317;49.048;8.468;2024-02-21T06:48:15;7.40;;;3.50;;
10537;SDS011;5317;49.048;8.468;2024-02-21T06:50:43;9.97;;;4.20;;
10537;SDS011;5317;49.048;8.468;2024-02-21T06:53:09;10.70;;;3.63;;
10537;SDS011;5317;49.048;8.468;2024-02-21T06:55:36;6.77;;;4.03;;
10537;SDS011;5317;49.048;8.468;2024-02-21T06:58:04;5.57;;;3.30;;
10537;SDS011;5317;49.048;8.468;2024-02-21T07:00:35;6.10;;;3.80;;
10537;SDS011;5317;49.048;8.468;2024-02-21T07:03:01;6.50;;;3.90;;
10537;SDS011;5317;49.048;8.468;2024-02-21T07:05:28;6.83;;;3.87;;
10537;SDS011;5317;49.048;8.468;2024-02-21T07:07:55;7.57;;;4.13;;
10537;SDS011;5317;49.048;8.468;2024-02-21T07:10:22;9.27;;;4.50;;
10537;SDS011;5317;49.048;8.468;2024-02-21T07:12:49;8.90;;;3.63;;
10537;SDS011;5317;49.048;8.468;2024-02-21T07:15:17;7.47;;;3.70;;
10537;SDS011;5317;49.048;8.468;2024-02-21T07:17:46;6.57;;;3.87;;
10537;SDS011;5317;49.048;8.468;2024-02-21T07:20:13;6.73;;;3.70;;
10537;SDS011;5317;49.048;8.468;2024-02-21T07:22:39;5.60;;;3.97;;
10537;SDS011;5317;49.048;8.468;2024-02-21T07:25:07;8.07;;;3.30;;
10537;SDS011;5317;49.048;8.468;2024-02-21T07:27:34;7.73;;;3.70;;
10537;SDS011;5317;49.048;8.468;2024-02-21T07:30:02;7.87;;;4.00;;
10537;SDS011;5317;49.048;8.468;2024-02-21T07:32:30;5.77;;;3.20;;
10537;SDS011;5317;49.048;8.468;2024-02-21T07:34:58;8.30;;;3.90;;
10537;SDS011;5317;49.048;8.468;2024-02-21T07:37:25;7.40;;;3.70;;
10537;SDS011;5317;49.048;8.468;2024-02-21T07:39:52;9.17;;;5.13;;
10537;SDS011;5317;49.048;8.468;2024-02-21T07:42:19;6.50;;;3.43;;
10537;SDS011;5317;49.048;8.468;2024-02-21T07:44:45;9.13;;;3.80;;
10537;SDS011;5317;49.048;8.468;2024-02-21T07:47:12;6.43;;;3.50;;
10537;SDS011;5317;49.048;8.468;2024-02-21T07:49:43;9.60;;;3.60;;
10537;SDS011;5317;49.048;8.468;2024-02-21T07:52:12;7.67;;;3.80;;
10537;SDS011;5317;49.048;8.468;2024-02-21T07:54:40;6.53;;;3.53;;
10537;SDS011;5317;49.048;8.468;2024-02-21T07:57:08;6.73;;;3.43;;
10537;SDS011;5317;49.048;8.468;2024-02-21T07:59:35;6.73;;;3.90;;
10537;SDS011;5317;49.048;8.468;2024-02-21T08:02:02;7.53;;;3.90;;
10537;SDS011;5317;49.048;8.468;2024-02-21T08:04:31;7.57;;;4.50;;
10537;SDS011;5317;49.048;8.468;2024-02-21T08:06:59;5.87;;;3.87;;
10537;SDS011;5317;49.048;8.468;2024-02-21T08:09:30;7.60;;;3.97;;
10537;SDS011;5317;49.048;8.468;2024-02-21T08:11:57;7.10;;;3.50;;
10537;SDS011;5317;49.048;8.468;2024-02-21T08:14:25;11.13;;;3.63;;
10537;SDS011;5317;49.048;8.468;2024-02-21T08:16:52;8.57;;;3.37;;
10537;SDS011;5317;49.048;8.468;2024-02-21T08:19:20;6.83;;;3.33;;
10537;SDS011;5317;49.048;8.468;2024-02-21T08:21:47;5.67;;;3.43;;
10537;SDS011;5317;49.048;8.468;2024-02-21T08:24:14;6.73;;;3.43;;
10537;SDS011;5317;49.048;8.468;2024-02-21T08:26:43;8.57;;;3.77;;
10537;SDS011;5317;49.048;8.468;2024-02-21T08:29:11;13.90;;;3.73;;
10537;SDS011;5317;49.048;8.468;2024-02-21T08:31:39;6.57;;;3.53;;
10537;SDS011;5317;49.048;8.468;2024-02-21T08:34:06;9.27;;;3.47;;
10537;SDS011;5317;49.048;8.468;2024-02-21T08:36:36;6.33;;;3.70;;
10537;SDS011;5317;49.048;8.468;2024-02-21T08:39:03;6.97;;;3.67;;
10537;SDS011;5317;49.048;8.468;2024-02-21T08:41:31;6.90;;;3.03;;
10537;SDS011;5317;49.048;8.468;2024-02-21T08:44:00;7.87;;;3.27;;
10537;SDS011;5317;49.048;8.468;2024-02-21T08:46:27;9.87;;;3.63;;
10537;SDS011;5317;49.048;8.468;2024-02-21T08:48:54;7.37;;;3.53;;
10537;SDS011;5317;49.048;8.468;2024-02-21T08:51:21;7.30;;;3.33;;
10537;SDS011;5317;49.048;8.468;2024-02-21T08:53:48;7.53;;;3.20;;
10537;SDS011;5317;49.048;8.468;2024-02-21T08:56:17;7.40;;;3.67;;
10537;SDS011;5317;49.048;8.468;2024-02-21T08:58:44;5.20;;;3.10;;
10537;SDS011;5317;49.048;8.468;2024-02-21T09:01:13;9.37;;;3.13;;
10537;SDS011;5317;49.048;8.468;2024-02-21T09:03:40;8.50;;;3.17;;
10537;SDS011;5317;49.048;8.468;2024-02-21T09:06:07;6.77;;;3.53;;
10537;SDS011;5317;49.048;8.468;2024-02-21T09:08:35;6.63;;;3.03;;
10537;SDS011;5317;49.048;8.468;2024-02-21T09:11:02;7.43;;;3.37;;
10537;SDS011;5317;49.048;8.468;2024-02-21T09:13:29;7.17;;;3.33;;
10537;SDS011;5317;49.048;8.468;2024-02-21T09:15:56;7.77;;;3.00;;
10537;SDS011;5317;49.048;8.468;2024-02-21T09:18:24;8.27;;;3.10;;
10537;SDS011;5317;49.048;8.468;2024-02-21T09:20:51;6.13;;;3.00;;
10537;SDS011;5317;49.048;8.468;2024-02-21T09:23:18;7.53;;;3.27;;
10537;SDS011;5317;49.048;8.468;2024-02-21T09:25:45;4.83;;;2.90;;
10537;SDS011;5317;49.048;8.468;2024-02-21T09:28:12;8.73;;;3.43;;
10537;SDS011;5317;49.048;8.468;2024-02-21T09:30:39;8.23;;;3.40;;
10537;SDS011;5317;49.048;8.468;2024-02-21T09:33:06;5.97;;;3.73;;
10537;SDS011;5317;49.048;8.468;2024-02-21T09:35:34;5.80;;;3.13;;
10537;SDS011;5317;49.048;8.468;2024-02-21T09:38:02;6.93;;;3.37;;
10537;SDS011;5317;49.048;8.468;2024-02-21T09:40:30;7.23;;;2.90;;
10537;SDS011;5317;49.048;8.468;2024-02-21T09:43:00;6.33;;;3.23;;
10537;SDS011;5317;49.048;8.468;2024-02-21T09:45:31;7.07;;;3.30;;
10537;SDS011;5317;49.048;8.468;2024-02-21T09:50:58;5.90;;;2.73;;
10537;SDS011;5317;49.048;8.468;2024-02-21T09:53:26;6.50;;;3.10;;
10537;SDS011;5317;49.048;8.468;2024-02-21T09:55:54;4.30;;;2.73;;
10537;SDS011;5317;49.048;8.468;2024-02-21T09:58:22;6.00;;;3.00;;
10537;SDS011;5317;49.048;8.468;2024-02-21T10:00:52;5.97;;;3.07;;
10537;SDS011;5317;49.048;8.468;2024-02-21T10:03:19;9.97;;;3.20;;
10537;SDS011;5317;49.048;8.468;2024-02-21T10:05:47;6.03;;;2.90;;
10537;SDS011;5317;49.048;8.468;2024-02-21T10:08:17;6.67;;;2.83;;
10537;SDS011;5317;49.048;8.468;2024-02-21T10:10:45;5.03;;;2.60;;
10537;SDS011;5317;49.048;8.468;2024-02-21T10:13:23;11.00;;;3.07;;
10537;SDS011;5317;49.048;8.468;2024-02-21T10:16:00;4.67;;;2.70;;
10537;SDS011;5317;49.048;8.468;2024-02-21T10:18:28;8.97;;;3.20;;
10537;SDS011;5317;49.048;8.468;2024-02-21T10:21:02;6.03;;;2.50;;
10537;SDS011;5317;49.048;8.468;2024-02-21T10:23:41;6.97;;;3.23;;
10537;SDS011;5317;49.048;8.468;2024-02-21T10:26:12;6.13;;;3.00;;
10537;SDS011;5317;49.048;8.468;2024-02-21T10:28:40;5.10;;;2.50;;
10537;SDS011;5317;49.048;8.468;2024-02-21T10:31:10;10.43;;;3.47;;
10537;SDS011;5317;49.048;8.468;2024-02-21T10:33:37;4.60;;;2.60;;
10537;SDS011;5317;49.048;8.468;2024-02-21T10:36:08;5.27;;;2.73;;
10537;SDS011;5317;49.048;8.468;2024-02-21T10:38:36;7.23;;;3.00;;
10537;SDS011;5317;49.048;8.468;2024-02-21T10:41:05;7.20;;;2.90;;
10537;SDS011;5317;49.048;8.468;2024-02-21T10:43:35;5.70;;;3.03;;
10537;SDS011;5317;49.048;8.468;2024-02-21T10:46:05;8.50;;;3.20;;
10537;SDS011;5317;49.048;8.468;2024-02-21T10:48:36;11.13;;;2.90;;
10537;SDS011;5317;49.048;8.468;2024-02-21T10:51:12;4.47;;;2.60;;
10537;SDS011;5317;49.048;8.468;2024-02-21T10:53:44;5.40;;;2.70;;
10537;SDS011;5317;49.048;8.468;2024-02-21T10:56:20;6.43;;;2.37;;
10537;SDS011;5317;49.048;8.468;2024-02-21T10:58:50;9.10;;;2.50;;
10537;SDS011;5317;49.048;8.468;2024-02-21T11:01:19;7.53;;;2.60;;
10537;SDS011;5317;49.048;8.468;2024-02-21T11:03:47;5.33;;;3.03;;
10537;SDS011;5317;49.048;8.468;2024-02-21T11:06:16;7.97;;;2.93;;
10537;SDS011;5317;49.048;8.468;2024-02-21T11:08:45;7.00;;;2.57;;
10537;SDS011;5317;49.048;8.468;2024-02-21T11:11:12;6.10;;;3.33;;
10537;SDS011;5317;49.048;8.468;2024-02-21T11:13:44;6.10;;;2.63;;
10537;SDS011;5317;49.048;8.468;2024-02-21T11:16:20;5.43;;;2.70;;
10537;SDS011;5317;49.048;8.468;2024-02-21T11:18:48;3.60;;;2.33;;
10537;SDS011;5317;49.048;8.468;2024-02-21T11:21:15;4.90;;;2.10;;
10537;SDS011;5317;49.048;8.468;2024-02-21T11:23:42;4.87;;;2.57;;
10537;SDS011;5317;49.048;8.468;2024-02-21T11:26:10;4.50;;;2.20;;
10537;SDS011;5317;49.048;8.468;2024-02-21T11:28:56;6.30;;;3.10;;
10537;SDS011;5317;49.048;8.468;2024-02-21T11:31:24;7.97;;;2.50;;
10537;SDS011;5317;49.048;8.468;2024-02-21T11:33:52;7.20;;;2.50;;
10537;SDS011;5317;49.048;8.468;2024-02-21T11:36:24;4.00;;;2.10;;
10537;SDS011;5317;49.048;8.468;2024-02-21T11:38:52;5.03;;;2.20;;
10537;SDS011;5317;49.048;8.468;2024-02-21T11:41:19;4.93;;;2.50;;
10537;SDS011;5317;49.048;8.468;2024-02-21T11:43:46;4.10;;;2.10;;
10537;SDS011;5317;49.048;8.468;2024-02-21T11:46:16;3.97;;;2.27;;
10537;SDS011;5317;49.048;8.468;2024-02-21T11:48:43;5.30;;;2.27;;
10537;SDS011;5317;49.048;8.468;2024-02-21T11:51:20;5.50;;;2.30;;
10537;SDS011;5317;49.048;8.468;2024-02-21T11:53:50;3.93;;;2.50;;
10537;SDS011;5317;49.048;8.468;2024-02-21T11:56:17;5.20;;;2.30;;
10537;SDS011;5317;49.048;8.468;2024-02-21T11:58:45;3.47;;;2.20;;
10537;SDS011;5317;49.048;8.468;2024-02-21T12:01:12;7.43;;;2.37;;
10537;SDS011;5317;49.048;8.468;2024-02-21T12:03:41;5.20;;;2.60;;
10537;SDS011;5317;49.048;8.468;2024-02-21T12:06:14;5.03;;;2.30;;
10537;SDS011;5317;49.048;8.468;2024-02-21T12:08:44;3.90;;;2.20;;
10537;SDS011;5317;49.048;8.468;2024-02-21T12:11:19;4.17;;;2.30;;
10537;SDS011;5317;49.048;8.468;2024-02-21T12:13:47;5.83;;;2.80;;
10537;SDS011;5317;49.048;8.468;2024-02-21T12:16:17;3.07;;;2.03;;
10537;SDS011;5317;49.048;8.468;2024-02-21T12:18:45;5.83;;;2.23;;
10537;SDS011;5317;49.048;8.468;2024-02-21T12:21:12;4.43;;;2.10;;
10537;SDS011;5317;49.048;8.468;2024-02-21T12:23:39;5.00;;;2.10;;
10537;SDS011;5317;49.048;8.468;2024-02-21T12:26:06;3.93;;;2.60;;
10537;SDS011;5317;49.048;8.468;2024-02-21T12:28:34;6.87;;;2.27;;
10537;SDS011;5317;49.048;8.468;2024-02-21T12:31:01;4.40;;;1.90;;
10537;SDS011;5317;49.048;8.468;2024-02-21T12:33:29;4.60;;;2.23;;
10537;SDS011;5317;49.048;8.468;2024-02-21T12:35:58;3.77;;;2.30;;
10537;SDS011;5317;49.048;8.468;2024-02-21T12:38:26;6.63;;;2.33;;
10537;SDS011;5317;49.048;8.468;2024-02-21T12:40:53;3.70;;;2.07;;
10537;SDS011;5317;49.048;8.468;2024-02-21T12:43:19;5.13;;;2.33;;
10537;SDS011;5317;49.048;8.468;2024-02-21T12:45:47;4.37;;;1.97;;
10537;SDS011;5317;49.048;8.468;2024-02-21T12:48:14;4.07;;;2.17;;
10537;SDS011;5317;49.048;8.468;2024-02-21T12:50:41;6.37;;;2.47;;
10537;SDS011;5317;49.048;8.468;2024-02-21T12:53:17;3.83;;;2.30;;
10537;SDS011;5317;49.048;8.468;2024-02-21T12:55:46;5.10;;;2.47;;
10537;SDS011;5317;49.048;8.468;2024-02-21T12:58:13;6.03;;;2.90;;
10537;SDS011;5317;49.048;8.468;2024-02-21T13:00:40;6.37;;;2.47;;
10537;SDS011;5317;49.048;8.468;2024-02-21T13:03:07;4.07;;;1.90;;
10537;SDS011;5317;49.048;8.468;2024-02-21T13:05:36;4.00;;;2.10;;
10537;SDS011;5317;49.048;8.468;2024-02-21T13:08:04;3.37;;;2.03;;
10537;SDS011;5317;49.048;8.468;2024-02-21T13:10:32;4.20;;;2.50;;
10537;SDS011;5317;49.048;8.468;2024-02-21T13:13:00;7.83;;;2.50;;
10537;SDS011;5317;49.048;8.468;2024-02-21T13:15:27;5.73;;;2.53;;
10537;SDS011;5317;49.048;8.468;2024-02-21T13:17:54;4.23;;;2.50;;
10537;SDS011;5317;49.048;8.468;2024-02-21T13:20:22;4.70;;;2.40;;
10537;SDS011;5317;49.048;8.468;2024-02-21T13:22:49;5.63;;;2.03;;
10537;SDS011;5317;49.048;8.468;2024-02-21T13:25:15;5.30;;;2.30;;
10537;SDS011;5317;49.048;8.468;2024-02-21T13:27:46;5.70;;;2.23;;
10537;SDS011;5317;49.048;8.468;2024-02-21T13:30:14;5.10;;;2.27;;
10537;SDS011;5317;49.048;8.468;2024-02-21T13:32:43;3.90;;;2.07;;
10537;SDS011;5317;49.048;8.468;2024-02-21T13:35:12;6.67;;;2.47;;
10537;SDS011;5317;49.048;8.468;2024-02-21T13:37:39;4.10;;;2.10;;
10537;SDS011;5317;49.048;8.468;2024-02-21T13:40:07;4.63;;;2.20;;
10537;SDS011;5317;49.048;8.468;2024-02-21T13:42:35;3.43;;;2.20;;
10537;SDS011;5317;49.048;8.468;2024-02-21T13:45:04;4.57;;;2.13;;
10537;SDS011;5317;49.048;8.468;2024-02-21T13:47:31;6.60;;;2.47;;
10537;SDS011;5317;49.048;8.468;2024-02-21T13:49:58;5.70;;;2.20;;
10537;SDS011;5317;49.048;8.468;2024-02-21T13:52:25;5.77;;;2.03;;
10537;SDS011;5317;49.048;8.468;2024-02-21T13:54:52;3.77;;;2.00;;
10537;SDS011;5317;49.048;8.468;2024-02-21T13:57:19;5.70;;;2.77;;
10537;SDS011;5317;49.048;8.468;2024-02-21T13:59:46;4.70;;;2.33;;
10537;SDS011;5317;49.048;8.468;2024-02-21T14:02:14;3.63;;;2.50;;
10537;SDS011;5317;49.048;8.468;2024-02-21T14:04:41;5.13;;;2.20;;
10537;SDS011;5317;49.048;8.468;2024-02-21T14:07:08;4.07;;;2.63;;
10537;SDS011;5317;49.048;8.468;2024-02-21T14:09:35;4.10;;;2.10;;
10537;SDS011;5317;49.048;8.468;2024-02-21T14:12:02;4.80;;;2.60;;
10537;SDS011;5317;49.048;8.468;2024-02-21T14:14:33;3.97;;;2.40;;
10537;SDS011;5317;49.048;8.468;2024-02-21T14:17:00;4.63;;;2.30;;
10537;SDS011;5317;49.048;8.468;2024-02-21T14:19:28;3.40;;;2.10;;
10537;SDS011;5317;49.048;8.468;2024-02-21T14:21:55;4.67;;;2.43;;
10537;SDS011;5317;49.048;8.468;2024-02-21T14:24:22;5.63;;;2.30;;
10537;SDS011;5317;49.048;8.468;2024-02-21T14:26:49;5.40;;;2.00;;
10537;SDS011;5317;49.048;8.468;2024-02-21T14:29:17;5.17;;;2.20;;
10537;SDS011;5317;49.048;8.468;2024-02-21T14:31:45;6.40;;;2.47;;
10537;SDS011;5317;49.048;8.468;2024-02-21T14:34:11;3.03;;;2.50;;
10537;SDS011;5317;49.048;8.468;2024-02-21T14:36:40;6.20;;;2.27;;
10537;SDS011;5317;49.048;8.468;2024-02-21T14:39:07;5.27;;;2.30;;
10537;SDS011;5317;49.048;8.468;2024-02-21T14:41:34;5.17;;;2.37;;
10537;SDS011;5317;49.048;8.468;2024-02-21T14:44:01;3.87;;;2.10;;
10537;SDS011;5317;49.048;8.468;2024-02-21T14:46:28;3.07;;;2.07;;
10537;SDS011;5317;49.048;8.468;2024-02-21T14:48:55;3.73;;;2.10;;
10537;SDS011;5317;49.048;8.468;2024-02-21T14:51:22;5.93;;;2.23;;
10537;SDS011;5317;49.048;8.468;2024-02-21T14:53:51;7.87;;;2.57;;
10537;SDS011;5317;49.048;8.468;2024-02-21T14:56:18;6.83;;;2.30;;
10537;SDS011;5317;49.048;8.468;2024-02-21T14:58:44;4.43;;;2.30;;
10537;SDS011;5317;49.048;8.468;2024-02-21T15:01:12;4.30;;;2.03;;
10537;SDS011;5317;49.048;8.468;2024-02-21T15:03:40;4.33;;;2.00;;
10537;SDS011;5317;49.048;8.468;2024-02-21T15:06:07;5.83;;;2.27;;
10537;SDS011;5317;49.048;8.468;2024-02-21T15:08:35;6.30;;;2.43;;